Time;durP1;ratioP1;P1;durP2;ratioP2;P2;SDS_P1;SDS_P2;PMS_P1;PMS_P2;Temp;Humidity;BMP_temperature;BMP_pressure;BME280_temperature;BME280_humidity;BME280_pressure;Samples;Min_cycle;Max_cycle;Signal;HPM_P1;HPM_P2
2022/02/28 00:01:24;;;;;;;2.15;1.88;;;15.90;79.20;;;;;;5073038;28;20063;-55
2022/02/28 00:03:55;;;;;;;3.00;2.00;;;15.90;82.10;;;;;;5072769;28;20049;-57
2022/02/28 00:06:20;;;;;;;3.05;1.80;;;;;;;;;;5072988;28;20028;-58
2022/02/28 00:08:46;;;;;;;2.17;1.90;;;;;;;;;;5072941;28;20035;-59
2022/02/28 00:11:12;;;;;;;3.38;1.75;;;;;;;;;;5072934;28;20032;-58
2022/02/28 00:13:38;;;;;;;2.70;2.30;;;;;;;;;;5072906;28;20027;-58
2022/02/28 00:16:05;;;;;;;4.18;1.77;;;;;;;;;;5072778;28;20036;-57
2022/02/28 00:18:31;;;;;;;2.22;1.48;;;;;;;;;;5073061;28;20032;-58
2022/02/28 00:20:57;;;;;;;2.63;1.70;;;;;;;;;;5072728;28;20029;-57
2022/02/28 00:23:23;;;;;;;2.88;2.00;;;;;;;;;;5072744;28;20036;-57
2022/02/28 00:25:49;;;;;;;3.47;1.95;;;;;;;;;;5072743;28;20107;-57
2022/02/28 00:28:15;;;;;;;1.90;1.38;;;;;;;;;;5072771;28;20024;-59
2022/02/28 00:30:41;;;;;;;3.97;1.98;;;;;;;;;;5072690;28;20033;-58
2022/02/28 00:33:07;;;;;;;3.80;1.95;;;;;;;;;;5072639;28;20108;-58
2022/02/28 00:35:33;;;;;;;1.88;1.70;;;;;;;;;;5072543;28;20040;-57
2022/02/28 00:37:59;;;;;;;3.42;1.73;;;;;;;;;;5072598;28;20372;-58
2022/02/28 00:40:25;;;;;;;2.58;1.70;;;;;;;;;;5072575;28;20090;-56
2022/02/28 00:42:51;;;;;;;2.35;1.77;;;;;;;;;;5072475;28;20100;-58
2022/02/28 00:45:17;;;;;;;2.53;1.80;;;;;;;;;;5072465;28;20112;-58
2022/02/28 00:47:43;;;;;;;1.92;1.60;;;;;;;;;;5072430;28;20101;-57
2022/02/28 00:50:11;;;;;;;4.07;2.03;;;15.00;85.60;;;;;;5072690;28;20024;-58
2022/02/28 00:52:37;;;;;;;2.80;1.95;;;;;;;;;;5072412;28;20085;-58
2022/02/28 00:55:04;;;;;;;2.78;1.50;;;15.70;86.00;;;;;;5072135;28;20475;-58
2022/02/28 00:57:30;;;;;;;2.13;1.55;;;;;;;;;;5072252;28;20033;-58
2022/02/28 00:59:56;;;;;;;2.97;1.77;;;;;;;;;;5072291;28;20116;-57
2022/02/28 01:02:22;;;;;;;1.75;1.50;;;;;;;;;;5071991;28;20080;-59
2022/02/28 01:04:49;;;;;;;2.25;1.75;;;;;;;;;;5072631;28;20386;-58
2022/02/28 01:07:15;;;;;;;2.08;1.73;;;;;;;;;;5072332;28;20032;-58
2022/02/28 01:09:41;;;;;;;2.20;1.80;;;;;;;;;;5072552;28;20036;-59
2022/02/28 01:12:07;;;;;;;1.58;1.48;;;;;;;;;;5072186;28;20029;-58
2022/02/28 01:14:34;;;;;;;2.10;1.58;;;15.60;84.10;;;;;;5072146;28;20047;-58
2022/02/28 01:17:00;;;;;;;2.75;1.42;;;;;;;;;;5075830;28;20101;-56
2022/02/28 01:19:26;;;;;;;2.03;1.48;;;;;;;;;;5076271;28;20479;-58
2022/02/28 01:21:53;;;;;;;1.42;1.33;;;;;;;;;;5076241;28;20025;-57
2022/02/28 01:24:19;;;;;;;3.75;1.63;;;;;;;;;;5076153;28;20048;-57
2022/02/28 01:26:45;;;;;;;1.67;1.50;;;;;;;;;;5074892;28;20548;-54
2022/02/28 01:29:11;;;;;;;2.95;1.70;;;;;;;;;;5076091;28;20036;-57
2022/02/28 01:31:37;;;;;;;1.45;1.35;;;;;;;;;;5076056;28;20103;-57
2022/02/28 01:34:04;;;;;;;2.35;1.83;;;;;;;;;;5075869;28;20060;-58
2022/02/28 01:36:30;;;;;;;1.65;1.50;;;;;;;;;;5075946;28;20051;-58
2022/02/28 01:38:56;;;;;;;1.88;1.52;;;;;;;;;;5075927;28;20471;-57
2022/02/28 01:41:22;;;;;;;2.42;1.58;;;;;;;;;;5075822;28;20067;-58
2022/02/28 01:43:48;;;;;;;2.10;1.70;;;;;;;;;;5075833;28;20024;-59
2022/02/28 01:46:14;;;;;;;2.45;1.58;;;;;;;;;;5075864;28;20557;-59
2022/02/28 01:48:40;;;;;;;1.67;1.52;;;;;;;;;;5075709;28;20033;-58
2022/02/28 01:51:06;;;;;;;1.52;1.40;;;;;;;;;;5075720;28;20017;-58
2022/02/28 01:53:32;;;;;;;4.20;1.75;;;;;;;;;;5075524;28;20497;-58
2022/02/28 01:55:58;;;;;;;3.25;1.58;;;;;;;;;;5075573;28;20029;-55
2022/02/28 01:58:24;;;;;;;2.97;1.73;;;;;;;;;;5075480;28;20028;-58
2022/02/28 02:00:50;;;;;;;2.85;1.70;;;;;;;;;;5075532;28;20033;-56
2022/02/28 02:03:16;;;;;;;2.42;1.77;;;;;;;;;;5075136;28;20045;-57
2022/02/28 02:05:42;;;;;;;2.55;1.60;;;;;;;;;;5075422;28;20056;-57
2022/02/28 02:08:08;;;;;;;2.72;1.65;;;;;;;;;;5075602;28;20040;-58
2022/02/28 02:10:34;;;;;;;3.03;1.73;;;15.40;84.60;;;;;;5075240;28;20024;-57
2022/02/28 02:13:01;;;;;;;1.65;1.55;;;;;;;;;;5075206;28;20036;-57
2022/02/28 02:15:27;;;;;;;1.90;1.75;;;;;;;;;;5075026;28;20041;-57
2022/02/28 02:17:54;;;;;;;1.90;1.48;;;;;;;;;;5075138;28;20108;-58
2022/02/28 02:20:20;;;;;;;2.65;1.70;;;;;;;;;;5075037;28;20048;-57
2022/02/28 02:23:15;;;;;;;3.13;1.67;;;15.30;80.40;;;;;;5075266;28;20025;-57
2022/02/28 02:25:42;;;;;;;2.28;1.80;;;15.10;86.50;;;;;;5066264;28;20041;-57
2022/02/28 02:28:09;;;;;;;2.35;1.52;;;;;;;;;;5073549;28;20023;-57
2022/02/28 02:30:35;;;;;;;2.50;1.73;;;;;;;;;;5074915;28;20105;-58
2022/02/28 02:33:02;;;;;;;1.85;1.45;;;;;;;;;;5075153;28;20387;-58
2022/02/28 02:35:28;;;;;;;1.88;1.73;;;15.20;83.00;;;;;;5074702;28;20037;-57
2022/02/28 02:37:54;;;;;;;3.05;2.00;;;;;;;;;;5074955;28;20027;-58
2022/02/28 02:40:20;;;;;;;2.45;1.50;;;;;;;;;;5074861;28;20112;-58
2022/02/28 02:42:46;;;;;;;2.42;1.70;;;;;;;;;;5074770;28;20071;-58
2022/02/28 02:45:13;;;;;;;2.22;1.58;;;;;;;;;;5074732;28;20040;-58
2022/02/28 02:47:38;;;;;;;2.13;1.58;;;;;;;;;;5074571;28;20025;-58
2022/02/28 02:50:05;;;;;;;3.20;1.50;;;15.20;86.60;;;;;;5074590;28;20024;-58
2022/02/28 02:52:31;;;;;;;3.72;1.70;;;;;;;;;;5074380;28;20052;-58
2022/02/28 02:54:57;;;;;;;2.40;1.60;;;;;;;;;;5074413;28;20048;-59
2022/02/28 02:57:23;;;;;;;2.88;1.83;;;;;;;;;;5074431;28;20497;-57
2022/02/28 02:59:50;;;;;;;1.95;1.50;;;;;;;;;;5074506;28;20055;-57
2022/02/28 03:02:16;;;;;;;2.00;1.50;;;;;;;;;;5074286;28;20101;-57
2022/02/28 03:04:42;;;;;;;2.50;1.55;;;;;;;;;;5074277;28;20032;-57
2022/02/28 03:07:15;;;;;;;1.90;1.35;;;15.10;80.60;;;;;;5074292;28;20050;-57
2022/02/28 03:09:41;;;;;;;1.88;1.60;;;;;;;;;;5074414;28;20016;-58
2022/02/28 03:12:07;;;;;;;2.45;2.00;;;;;;;;;;5074171;28;20028;-57
2022/02/28 03:14:33;;;;;;;2.15;1.73;;;;;;;;;;5073981;28;20061;-59
2022/02/28 03:16:59;;;;;;;2.30;1.70;;;;;;;;;;5074137;28;20028;-46
2022/02/28 03:19:25;;;;;;;1.98;1.58;;;;;;;;;;5074047;28;20028;-47
2022/02/28 03:21:51;;;;;;;1.60;1.20;;;;;;;;;;5073981;28;20482;-47
2022/02/28 03:24:17;;;;;;;3.15;1.77;;;;;;;;;;5073988;28;20105;-46
2022/02/28 03:26:44;;;;;;;3.95;2.10;;;;;;;;;;5073855;28;20475;-46
2022/02/28 03:29:10;;;;;;;1.60;1.50;;;;;;;;;;5073772;28;20037;-46
2022/02/28 03:31:37;;;;;;;2.53;1.70;;;;;;;;;;5073732;28;20082;-46
2022/02/28 03:34:03;;;;;;;1.90;1.23;;;;;;;;;;5073705;28;20028;-46
2022/02/28 03:36:29;;;;;;;2.42;1.80;;;;;;;;;;5073698;28;20020;-46
2022/02/28 03:38:55;;;;;;;2.28;1.42;;;;;;;;;;5073133;28;20082;-46
2022/02/28 03:41:21;;;;;;;2.15;1.58;;;;;;;;;;5073593;28;20032;-46
2022/02/28 03:43:47;;;;;;;1.98;1.45;;;;;;;;;;5073519;28;20039;-47
2022/02/28 03:46:13;;;;;;;1.60;1.48;;;;;;;;;;5073478;28;20072;-48
2022/02/28 03:48:39;;;;;;;1.70;1.45;;;;;;;;;;5073725;28;20032;-46
2022/02/28 03:51:05;;;;;;;1.90;1.73;;;;;;;;;;5073397;28;20033;-46
2022/02/28 03:53:31;;;;;;;2.08;1.80;;;14.90;84.20;;;;;;5073496;28;20060;-45
2022/02/28 03:55:58;;;;;;;2.50;1.85;;;;;;;;;;5073207;28;20034;-58
2022/02/28 03:58:24;;;;;;;1.73;1.48;;;;;;;;;;5073509;28;20450;-58
2022/02/28 04:00:50;;;;;;;1.90;1.60;;;;;;;;;;5073210;28;20028;-58
2022/02/28 04:03:16;;;;;;;1.90;1.73;;;;;;;;;;5072904;28;20123;-58
2022/02/28 04:05:42;;;;;;;1.70;1.42;;;;;;;;;;5073126;28;20052;-59
2022/02/28 04:08:08;;;;;;;2.03;1.75;;;;;;;;;;5073100;28;20116;-58
2022/02/28 04:10:34;;;;;;;2.33;1.48;;;;;;;;;;5072997;28;20024;-58
2022/02/28 04:13:00;;;;;;;2.72;1.65;;;;;;;;;;5073049;28;20039;-58
2022/02/28 04:15:26;;;;;;;2.35;1.80;;;14.90;85.20;;;;;;5072930;28;20043;-58
2022/02/28 04:17:52;;;;;;;1.95;1.40;;;;;;;;;;5072792;28;20020;-58
2022/02/28 04:20:18;;;;;;;1.85;1.60;;;;;;;;;;5072797;28;20070;-58
2022/02/28 04:22:44;;;;;;;2.15;1.80;;;;;;;;;;5072786;28;20028;-58
2022/02/28 04:25:10;;;;;;;2.83;1.45;;;;;;;;;;5072743;28;20396;-58
2022/02/28 04:27:36;;;;;;;2.10;1.42;;;;;;;;;;5072721;28;20040;-58
2022/02/28 04:30:03;;;;;;;2.58;1.80;;;14.80;87.50;;;;;;5072747;28;20028;-58
2022/02/28 04:32:29;;;;;;;3.08;1.75;;;;;;;;;;5072645;28;20078;-58
2022/02/28 04:34:55;;;;;;;2.65;1.42;;;;;;;;;;5072531;28;20040;-58
2022/02/28 04:37:22;;;;;;;2.33;1.60;;;;;;;;;;5072642;28;20497;-57
2022/02/28 04:39:48;;;;;;;1.88;1.50;;;;;;;;;;5072597;28;20036;-58
2022/02/28 04:42:14;;;;;;;3.00;2.10;;;;;;;;;;5072508;28;20020;-58
2022/02/28 04:44:40;;;;;;;3.58;1.65;;;;;;;;;;5072553;28;20036;-57
2022/02/28 04:47:07;;;;;;;1.92;1.50;;;;;;;;;;5072509;28;20027;-57
2022/02/28 04:49:33;;;;;;;1.60;1.50;;;;;;;;;;5072018;28;20466;-58
2022/02/28 04:51:59;;;;;;;1.65;1.55;;;;;;;;;;5072097;28;20108;-58
2022/02/28 04:54:25;;;;;;;2.20;1.70;;;;;;;;;;5072381;28;20079;-58
2022/02/28 04:56:51;;;;;;;3.78;1.70;;;;;;;;;;5072350;28;20054;-58
2022/02/28 04:59:17;;;;;;;2.83;1.35;;;;;;;;;;5072530;28;20031;-59
2022/02/28 05:08:27;;;;;;;1.52;1.35;;;;;;;;;;5072612;28;20065;-59
2022/02/28 05:10:53;;;;;;;2.00;1.40;;;;;;;;;;5072205;28;20020;-58
2022/02/28 05:13:19;;;;;;;2.25;1.70;;;;;;;;;;5072225;28;20028;-58
2022/02/28 05:15:46;;;;;;;3.22;1.73;;;;;;;;;;5071144;28;20443;-58
2022/02/28 05:18:12;;;;;;;1.98;1.40;;;;;;;;;;5072252;28;20103;-59
2022/02/28 05:20:39;;;;;;;2.30;1.50;;;;;;;;;;5072161;28;20040;-58
2022/02/28 05:23:05;;;;;;;1.70;1.52;;;;;;;;;;5072396;28;20059;-58
2022/02/28 05:25:31;;;;;;;2.95;1.40;;;;;;;;;;5072059;28;20530;-58
2022/02/28 05:27:57;;;;;;;1.67;1.58;;;;;;;;;;5072324;28;20028;-58
2022/02/28 05:30:23;;;;;;;3.33;2.03;;;;;;;;;;5072052;28;20466;-58
2022/02/28 05:32:49;;;;;;;2.45;1.75;;;;;;;;;;5072016;28;20070;-56
2022/02/28 05:35:15;;;;;;;2.38;1.58;;;;;;;;;;5071943;28;20546;-58
2022/02/28 05:37:42;;;;;;;2.15;1.60;;;;;;;;;;5072071;28;20024;-57
2022/02/28 05:40:09;;;;;;;1.75;1.55;;;;;;;;;;5071961;28;20075;-57
2022/02/28 05:42:35;;;;;;;2.17;1.90;;;;;;;;;;5071891;28;20028;-58
2022/02/28 05:45:01;;;;;;;3.28;2.28;;;;;;;;;;5071994;28;20044;-58
2022/02/28 05:47:27;;;;;;;3.17;1.70;;;;;;;;;;5071890;28;20029;-57
2022/02/28 05:49:53;;;;;;;2.53;1.88;;;;;;;;;;5071863;28;20040;-58
2022/02/28 05:52:19;;;;;;;3.22;1.67;;;;;;;;;;5071846;28;20033;-58
2022/02/28 05:54:45;;;;;;;2.22;1.70;;;;;;;;;;5071772;28;20206;-57
2022/02/28 05:57:11;;;;;;;1.52;1.42;;;;;;;;;;5071832;28;20028;-47
2022/02/28 05:59:37;;;;;;;2.20;1.50;;;;;;;;;;5071720;28;20116;-47
2022/02/28 06:02:03;;;;;;;2.25;1.73;;;;;;;;;;5073281;28;20059;-46
2022/02/28 06:04:29;;;;;;;3.30;2.10;;;;;;;;;;5075434;28;20039;-46
2022/02/28 06:06:55;;;;;;;1.30;1.20;;;;;;;;;;5075363;28;20021;-46
2022/02/28 06:09:21;;;;;;;2.25;1.63;;;;;;;;;;5075353;28;20024;-46
2022/02/28 06:11:49;;;;;;;2.03;1.30;;;;;;;;;;5075267;28;20382;-45
2022/02/28 06:14:15;;;;;;;2.13;1.35;;;;;;;;;;5075244;28;20082;-46
2022/02/28 06:16:41;;;;;;;1.33;1.10;;;;;;;;;;5075164;28;20028;-46
2022/02/28 06:19:07;;;;;;;2.60;1.40;;;;;;;;;;5075189;28;20059;-46
2022/02/28 06:21:33;;;;;;;1.92;1.50;;;;;;;;;;5074946;28;20032;-46
2022/02/28 06:23:59;;;;;;;1.48;1.20;;;;;;;;;;5074942;28;20016;-46
2022/02/28 06:26:25;;;;;;;4.13;1.23;;;;;;;;;;5074952;28;20028;-46
2022/02/28 06:28:51;;;;;;;2.00;1.40;;;;;;;;;;5074894;28;20029;-46
2022/02/28 06:31:17;;;;;;;3.00;1.38;;;;;;;;;;5074884;28;20039;-47
2022/02/28 06:33:42;;;;;;;1.73;1.30;;;;;;;;;;5074850;28;20028;-46
2022/02/28 06:36:08;;;;;;;3.08;1.67;;;;;;;;;;5074796;28;20106;-46
2022/02/28 06:38:34;;;;;;;1.30;1.17;;;;;;;;;;5074726;28;20025;-46
2022/02/28 06:41:00;;;;;;;1.33;1.23;;;;;;;;;;5074703;28;20111;-46
2022/02/28 06:43:26;;;;;;;1.40;1.27;;;;;;;;;;5074651;28;20035;-46
2022/02/28 06:45:53;;;;;;;2.28;1.30;;;;;;;;;;5074855;28;20025;-46
2022/02/28 06:48:19;;;;;;;1.92;1.08;;;;;;;;;;5074842;28;20574;-46
2022/02/28 06:50:45;;;;;;;2.38;1.13;;;;;;;;;;5074676;28;20032;-46
2022/02/28 06:53:18;;;;;;;2.20;1.13;;;16.70;80.50;;;;;;5074550;28;20123;-46
2022/02/28 06:55:48;;;;;;;2.95;1.45;;;16.80;80.20;;;;;;5074658;28;20029;-46
2022/02/28 06:58:15;;;;;;;1.55;1.13;;;;;;;;;;5074743;28;20359;-46
2022/02/28 07:00:41;;;;;;;1.30;1.20;;;;;;;;;;5074384;28;20025;-46
2022/02/28 07:03:11;;;;;;;3.25;1.85;;;;;;;;;;5073977;28;20040;-46
2022/02/28 07:05:38;;;;;;;;;;;17.10;79.50;;;;;;5075049;28;20025;-46
2022/02/28 07:08:04;;;;;;;4.88;1.63;;;;;;;;;;5074291;28;19905;-47
2022/02/28 07:10:30;;;;;;;1.77;1.35;;;;;;;;;;5074118;28;20067;-46
2022/02/28 07:12:56;;;;;;;2.65;1.38;;;;;;;;;;5073317;28;20060;-47
2022/02/28 07:15:23;;;;;;;1.98;1.30;;;;;;;;;;5074046;28;20044;-47
2022/02/28 07:17:50;;;;;;;2.58;1.52;;;17.60;84.90;;;;;;5073975;28;20032;-47
2022/02/28 07:20:15;;;;;;;4.80;1.60;;;;;;;;;;5073916;28;20546;-47
2022/02/28 07:22:41;;;;;;;2.45;1.60;;;;;;;;;;5073887;28;20103;-47
2022/02/28 07:25:08;;;;;;;3.80;1.60;;;;;;;;;;5073718;28;20029;-47
2022/02/28 07:27:34;;;;;;;4.30;1.33;;;;;;;;;;5073892;28;20040;-48
2022/02/28 07:29:59;;;;;;;4.93;1.50;;;;;;;;;;5073945;28;20032;-58
2022/02/28 07:32:25;;;;;;;3.10;1.38;;;;;;;;;;5073706;28;20470;-58
2022/02/28 07:34:51;;;;;;;2.25;1.40;;;;;;;;;;5073463;28;20040;-58
2022/02/28 07:37:17;;;;;;;2.55;1.52;;;;;;;;;;5073610;28;20097;-56
2022/02/28 07:39:43;;;;;;;3.03;1.20;;;;;;;;;;5073519;28;20028;-56
2022/02/28 07:42:09;;;;;;;5.85;1.60;;;;;;;;;;5073438;28;20479;-56
2022/02/28 07:44:35;;;;;;;5.88;1.30;;;;;;;;;;5073379;28;20082;-58
2022/02/28 07:47:01;;;;;;;5.20;1.40;;;;;;;;;;5073442;28;20025;-56
2022/02/28 07:49:34;;;;;;;1.98;1.38;;;;;;;;;;5073401;28;20446;-55
2022/02/28 07:51:59;;;;;;;2.17;1.77;;;;;;;;;;5073560;28;20033;-56
2022/02/28 07:54:25;;;;;;;1.23;1.10;;;;;;;;;;5073364;28;20047;-56
2022/02/28 07:56:51;;;;;;;3.97;1.80;;;;;;;;;;5073205;28;20055;-57
2022/02/28 07:59:17;;;;;;;4.30;1.95;;;;;;;;;;5073025;28;20032;-57
2022/02/28 08:01:43;;;;;;;5.28;1.60;;;;;;;;;;5072920;28;20063;-55
2022/02/28 08:04:09;;;;;;;3.42;1.60;;;;;;;;;;5073079;28;20075;-57
2022/02/28 08:06:37;;;;;;;3.90;1.35;;;;;;;;;;5072873;28;20035;-57
2022/02/28 08:09:03;;;;;;;1.73;1.40;;;;;;;;;;5073151;28;20094;-57
2022/02/28 08:11:29;;;;;;;2.83;1.40;;;;;;;;;;5072910;28;20079;-57
2022/02/28 08:13:55;;;;;;;4.63;1.40;;;;;;;;;;5072754;28;20028;-57
2022/02/28 08:16:20;;;;;;;2.92;1.38;;;;;;;;;;5072710;28;20114;-57
2022/02/28 08:18:46;;;;;;;3.95;1.52;;;;;;;;;;5072899;28;20032;-57
2022/02/28 08:21:12;;;;;;;3.13;1.58;;;;;;;;;;5072836;28;20028;-58
2022/02/28 08:23:39;;;;;;;2.90;1.40;;;;;;;;;;5072833;28;20074;-59
2022/02/28 08:26:05;;;;;;;4.10;1.33;;;;;;;;;;5072697;28;20016;-59
2022/02/28 08:28:31;;;;;;;2.33;1.30;;;;;;;;;;5072653;28;20025;-58
2022/02/28 08:30:57;;;;;;;2.10;1.55;;;;;;;;;;5072709;28;20036;-59
2022/02/28 08:33:23;;;;;;;4.15;1.50;;;;;;;;;;5072664;28;20032;-58
2022/02/28 08:35:49;;;;;;;3.25;1.20;;;;;;;;;;5072594;28;20139;-57
2022/02/28 08:38:17;;;;;;;2.25;1.38;;;;;;;;;;5072580;28;20021;-58
2022/02/28 08:40:43;;;;;;;4.32;1.85;;;;;;;;;;5072677;28;20056;-58
2022/02/28 08:43:10;;;;;;;5.50;1.40;;;;;;;;;;5072708;28;20371;-58
2022/02/28 08:45:36;;;;;;;3.55;1.20;;;;;;;;;;5072445;28;20483;-57
2022/02/28 08:48:02;;;;;;;2.78;1.17;;;;;;;;;;5072489;28;20067;-56
2022/02/28 08:50:28;;;;;;;5.13;1.52;;;;;;;;;;5072430;28;20494;-57
2022/02/28 08:52:54;;;;;;;2.88;1.38;;;;;;;;;;5072392;28;20052;-57
2022/02/28 08:55:20;;;;;;;2.30;1.20;;;;;;;;;;5072273;28;20036;-57
2022/02/28 08:57:46;;;;;;;1.80;1.38;;;;;;;;;;5072345;28;20032;-58
2022/02/28 09:00:12;;;;;;;2.65;1.25;;;;;;;;;;5072485;28;20028;-58
2022/02/28 09:02:38;;;;;;;2.40;1.48;;;;;;;;;;5072047;28;20055;-58
2022/02/28 09:05:04;;;;;;;2.05;1.42;;;;;;;;;;5072342;28;20056;-57
2022/02/28 09:07:32;;;;;;;2.28;1.42;;;;;;;;;;5072542;28;20378;-59
2022/02/28 09:09:57;;;;;;;2.25;1.17;;;;;;;;;;5072316;28;20390;-58
2022/02/28 09:12:23;;;;;;;2.17;1.10;;;;;;;;;;5072207;28;20028;-56
2022/02/28 09:14:49;;;;;;;3.20;1.75;;;;;;;;;;5072124;28;20040;-56
2022/02/28 09:17:15;;;;;;;3.15;1.52;;;;;;;;;;5072267;28;20050;-56
2022/02/28 09:19:41;;;;;;;1.45;1.00;;;;;;;;;;5072201;28;20072;-46
2022/02/28 09:22:07;;;;;;;2.20;1.63;;;;;;;;;;5072126;28;20029;-47
2022/02/28 09:24:34;;;;;;;2.40;1.50;;;21.00;77.90;;;;;;5072091;28;20538;-46
2022/02/28 09:27:00;;;;;;;1.77;1.10;;;;;;;;;;5072038;28;20040;-47
2022/02/28 09:29:26;;;;;;;1.85;1.27;;;;;;;;;;5072038;28;20032;-47
2022/02/28 09:31:52;;;;;;;1.52;1.13;;;;;;;;;;5072093;28;20039;-48
2022/02/28 09:34:18;;;;;;;3.25;1.25;;;;;;;;;;5071933;28;20398;-49
2022/02/28 09:36:44;;;;;;;1.60;1.13;;;;;;;;;;5073822;28;20032;-47
2022/02/28 09:39:10;;;;;;;2.40;1.20;;;;;;;;;;5075985;28;20035;-48
2022/02/28 09:41:36;;;;;;;2.25;1.13;;;;;;;;;;5075866;28;20025;-47
2022/02/28 09:44:02;;;;;;;2.95;1.10;;;;;;;;;;5076064;28;20408;-48
2022/02/28 09:46:28;;;;;;;1.67;1.25;;;20.60;80.90;;;;;;5075772;28;20031;-48
2022/02/28 09:48:55;;;;;;;1.52;1.10;;;;;;;;;;5075826;28;20025;-47
2022/02/28 09:51:21;;;;;;;1.80;1.27;;;;;;;;;;5075773;28;20486;-47
2022/02/28 09:53:47;;;;;;;1.33;1.10;;;;;;;;;;5075644;28;20029;-47
2022/02/28 09:56:13;;;;;;;2.30;1.40;;;;;;;;;;5075643;28;20082;-47
2022/02/28 09:58:39;;;;;;;2.60;1.30;;;;;;;;;;5075752;28;20375;-47
2022/02/28 10:01:05;;;;;;;2.25;1.10;;;;;;;;;;5075436;28;20020;-46
2022/02/28 10:03:37;;;;;;;1.77;1.00;;;;;;;;;;5075283;28;20048;-47
2022/02/28 10:06:03;;;;;;;2.10;1.17;;;;;;;;;;5075434;28;20556;-47
2022/02/28 10:08:41;;;;;;;1.73;1.25;;;;;;;;;;5075314;28;20035;-47
2022/02/28 10:11:25;;;;;;;1.67;1.10;;;;;;;;;;5075353;28;20029;-48
2022/02/28 10:13:58;;;;;;;1.90;1.30;;;;;;;;;;5075310;28;20016;-47
2022/02/28 10:16:41;;;;;;;1.38;1.08;;;;;;;;;;5075175;28;20150;-47
2022/02/28 10:19:15;;;;;;;1.38;1.17;;;;;;;;;;5075220;28;20262;-48
2022/02/28 10:21:45;;;;;;;1.10;0.98;;;;;;;;;;5075129;28;20465;-48
2022/02/28 10:24:31;;;;;;;2.00;0.98;;;;;;;;;;5075093;28;20031;-48
2022/02/28 10:26:57;;;;;;;1.92;1.20;;;;;;;;;;5075085;28;20016;-49
2022/02/28 10:29:27;;;;;;;1.70;1.10;;;;;;;;;;5075240;28;20027;-47
2022/02/28 10:31:59;;;;;;;1.50;1.13;;;;;;;;;;5074954;28;20138;-48
2022/02/28 10:34:26;;;;;;;0.77;0.68;;;;;;;;;;5074903;28;20086;-46
2022/02/28 10:37:02;;;;;;;2.35;1.10;;;;;;;;;;5074875;28;20028;-47
2022/02/28 10:39:35;;;;;;;2.90;1.20;;;;;;;;;;5074876;28;20512;-48
2022/02/28 10:42:06;;;;;;;1.30;1.00;;;;;;;;;;5074826;28;20047;-49
2022/02/28 10:44:33;;;;;;;1.38;1.10;;;;;;;;;;5074826;28;20443;-49
2022/02/28 10:47:04;;;;;;;2.97;1.40;;;;;;;;;;5074885;28;20025;-46
2022/02/28 10:49:30;;;;;;;1.58;1.15;;;;;;;;;;5073690;28;20031;-47
2022/02/28 10:52:03;;;;;;;1.42;1.17;;;;;;;;;;5074861;28;20086;-48
2022/02/28 10:54:29;;;;;;;1.23;0.98;;;;;;;;;;5074506;28;20020;-48
2022/02/28 10:56:59;;;;;;;1.73;1.30;;;;;;;;;;5074411;28;20036;-48
2022/02/28 10:59:28;;;;;;;3.93;0.97;;;;;;;;;;5074471;28;20021;-47
2022/02/28 11:01:54;;;;;;;1.98;1.17;;;;;;;;;;5074105;28;20302;-47
2022/02/28 11:04:31;;;;;;;2.60;1.58;;;;;;;;;;5074358;28;20056;-48
2022/02/28 11:06:57;;;;;;;1.25;1.10;;;;;;;;;;5074564;28;20031;-48
2022/02/28 11:09:35;;;;;;;1.52;1.00;;;;;;;;;;5074360;28;20024;-47
2022/02/28 11:12:20;;;;;;;2.22;0.95;;;;;;;;;;5074199;28;20027;-46
2022/02/28 11:14:47;;;;;;;1.75;1.10;;;;;;;;;;5074294;28;20017;-47
2022/02/28 11:17:24;;;;;;;1.80;1.13;;;;;;;;;;5074336;28;20449;-47
2022/02/28 11:19:51;;;;;;;1.23;0.93;;;;;;;;;;5074322;28;20024;-47
2022/02/28 11:22:18;;;;;;;1.65;1.15;;;;;;;;;;5074043;28;20035;-47
2022/02/28 11:24:46;;;;;;;1.52;1.30;;;;;;;;;;5073958;28;20036;-47
2022/02/28 11:27:12;;;;;;;2.47;1.23;;;;;;;;;;5074014;28;20505;-47
2022/02/28 11:29:38;;;;;;;1.50;1.00;;;;;;;;;;5073955;28;20146;-58
2022/02/28 11:32:08;;;;;;;1.25;1.15;;;;;;;;;;5073729;28;20025;-58
2022/02/28 11:34:35;;;;;;;1.70;1.20;;;;;;;;;;5073743;28;20475;-58
2022/02/28 11:37:02;;;;;;;1.48;1.20;;;;;;;;;;5073663;28;20044;-59
2022/02/28 11:39:30;;;;;;;1.27;0.90;;;;;;;;;;5073562;28;20466;-58
2022/02/28 11:41:58;;;;;;;1.00;0.90;;;;;;;;;;5073485;28;20051;-57
2022/02/28 11:44:24;;;;;;;3.17;1.23;;;;;;;;;;5073650;28;20082;-57
2022/02/28 11:47:00;;;;;;;2.17;1.20;;;;;;;;;;5073431;28;20078;-58
2022/02/28 11:49:27;;;;;;;2.45;1.50;;;;;;;;;;5073335;28;20112;-57
2022/02/28 11:51:53;;;;;;;1.33;1.17;;;;;;;;;;5073258;28;20032;-55
2022/02/28 11:54:19;;;;;;;1.23;0.90;;;;;;;;;;5073062;28;20048;-57
2022/02/28 11:56:46;;;;;;;1.50;1.17;;;;;;;;;;5073027;28;20525;-56
2022/02/28 11:59:21;;;;;;;1.55;1.20;;;;;;;;;;5072813;28;20032;-57
2022/02/28 12:01:53;;;;;;;1.50;1.25;;;;;;;;;;5073210;28;20048;-57
2022/02/28 12:04:30;;;;;;;1.40;1.13;;;;;;;;;;5073267;28;20098;-57
2022/02/28 12:06:56;;;;;;;1.90;1.20;;;;;;;;;;5073427;28;20020;-57
2022/02/28 12:09:38;;;;;;;0.95;0.88;;;;;;;;;;5073066;28;20044;-58
2022/02/28 12:12:22;;;;;;;1.77;1.35;;;;;;;;;;5073027;28;20016;-57
2022/02/28 12:15:02;;;;;;;1.20;1.08;;;;;;;;;;5072927;28;20051;-58
2022/02/28 12:17:35;;;;;;;1.17;1.05;;;;;;;;;;5073027;28;20100;-58
2022/02/28 12:20:18;;;;;;;1.00;0.88;;;;;;;;;;5073092;28;20036;-59
2022/02/28 12:22:54;;;;;;;2.13;1.10;;;;;;;;;;5072817;28;20025;-58
2022/02/28 12:25:30;;;;;;;1.70;1.23;;;;;;;;;;5072770;28;20024;-59
2022/02/28 12:27:56;;;;;;;2.55;1.20;;;;;;;;;;5072765;28;20479;-59
2022/02/28 12:30:40;;;;;;;1.10;0.93;;;;;;;;;;5072637;28;20436;-58
2022/02/28 12:33:06;;;;;;;1.20;1.08;;;;;;;;;;5072684;28;20016;-58
2022/02/28 12:35:40;;;;;;;1.23;1.13;;;;;;;;;;5072536;28;20036;-57
2022/02/28 12:38:06;;;;;;;2.20;1.20;;;;;;;;;;5072600;28;20020;-59
2022/02/28 12:40:32;;;;;;;1.90;1.30;;;;;;;;;;5072678;28;20040;-58
2022/02/28 12:42:58;;;;;;;1.17;1.00;;;;;;;;;;5072562;28;20106;-59
2022/02/28 12:45:25;;;;;;;1.13;1.02;;;;;;;;;;5072731;28;20100;-58
2022/02/28 12:47:53;;;;;;;1.20;1.10;;;;;;;;;;5072549;28;20554;-58
2022/02/28 12:50:19;;;;;;;1.30;1.00;;;;;;;;;;5072632;28;20367;-58
2022/02/28 12:52:52;;;;;;;1.58;1.02;;;;;;;;;;5072255;28;20032;-58
2022/02/28 12:55:19;;;;;;;2.78;1.10;;;;;;;;;;5072160;28;20150;-58
2022/02/28 12:57:48;;;;;;;1.70;1.08;;;;;;;;;;5072275;28;20056;-55
2022/02/28 13:00:14;;;;;;;2.47;1.05;;;;;;;;;;5072270;28;20024;-56
2022/02/28 13:02:40;;;;;;;1.67;1.13;;;;;;;;;;5072041;28;20044;-56
2022/02/28 13:05:08;;;;;;;1.13;0.88;;;;;;;;;;5072103;28;20112;-56
2022/02/28 13:07:34;;;;;;;1.30;1.15;;;;;;;;;;5072057;28;20351;-56
2022/02/28 13:10:02;;;;;;;1.35;1.05;;;;;;;;;;5072095;28;20031;-54
2022/02/28 13:12:28;;;;;;;1.58;1.10;;;;;;;;;;5071311;28;20440;-56
2022/02/28 13:14:56;;;;;;;1.65;1.17;;;;;;;;;;5071969;28;20592;-56
2022/02/28 13:17:23;;;;;;;1.52;0.90;;;;;;;;;;5071890;28;20033;-57
2022/02/28 13:19:49;;;;;;;1.10;1.00;;;;;;;;;;5072029;28;20429;-56
2022/02/28 13:22:23;;;;;;;3.35;1.17;;;;;;;;;;5071954;28;20032;-57
2022/02/28 13:24:49;;;;;;;1.10;1.00;;;;;;;;;;5071977;28;20048;-56
2022/02/28 13:27:16;;;;;;;1.60;1.23;;;;;;;;;;5071982;28;20079;-56
2022/02/28 13:29:42;;;;;;;2.80;1.17;;;;;;;;;;5071923;28;20040;-56
2022/02/28 13:32:11;;;;;;;1.30;1.00;;;;;;;;;;5071890;28;20429;-56
2022/02/28 13:34:38;;;;;;;1.63;1.45;;;;;;;;;;5071871;28;20021;-57
2022/02/28 13:37:06;;;;;;;2.75;1.05;;;;;;;;;;5071782;28;20098;-57
2022/02/28 13:39:35;;;;;;;1.20;1.10;;;;;;;;;;5071849;28;20032;-56
2022/02/28 13:42:10;;;;;;;2.45;0.80;;;;;;;;;;5071998;28;20052;-59
2022/02/28 13:44:57;;;;;;;1.10;1.00;;;;;;;;;;5071632;28;20074;-56
2022/02/28 13:47:24;;;;;;;2.00;1.00;;;;;;;;;;5064580;28;20044;-54
2022/02/28 13:49:52;;;;;;;1.75;1.50;;;;;;;;;;5071952;28;20380;-56
2022/02/28 13:52:20;;;;;;;2.33;1.27;;;20.50;86.30;;;;;;5071701;28;20441;-56
2022/02/28 13:54:54;;;;;;;1.98;1.20;;;;;;;;;;5071647;28;20027;-54
2022/02/28 13:57:20;;;;;;;1.90;1.05;;;;;;;;;;5071572;28;20118;-56
2022/02/28 13:59:46;;;;;;;3.67;1.25;;;;;;;;;;5071554;28;20120;-56
2022/02/28 14:02:13;;;;;;;1.55;1.25;;;;;;;;;;5071375;28;20414;-56
2022/02/28 14:04:41;;;;;;;1.08;1.02;;;;;;;;;;5071544;28;20025;-55
2022/02/28 14:07:07;;;;;;;2.70;1.60;;;;;;;;;;5071756;28;20025;-55
2022/02/28 14:09:34;;;;;;;2.78;1.20;;;;;;;;;;5071351;28;20032;-56
2022/02/28 14:12:01;;;;;;;1.52;1.23;;;;;;;;;;5071501;28;20028;-56
2022/02/28 14:14:27;;;;;;;2.25;1.30;;;;;;;;;;5071620;28;20096;-48
2022/02/28 14:16:57;;;;;;;2.20;1.48;;;;;;;;;;5071415;28;20125;-47
2022/02/28 14:19:31;;;;;;;1.88;1.20;;;;;;;;;;5071633;28;20020;-48
2022/02/28 14:22:13;;;;;;;2.50;1.63;;;20.70;77.30;;;;;;5071533;28;20035;-49
2022/02/28 14:24:56;;;;;;;2.63;1.38;;;;;;;;;;5074845;28;20056;-48
2022/02/28 14:27:29;;;;;;;1.77;1.30;;;;;;;;;;5074974;28;20041;-50
2022/02/28 14:30:06;;;;;;;2.05;1.15;;;20.40;77.10;;;;;;5075007;28;20371;-49
2022/02/28 14:32:33;;;;;;;2.90;1.45;;;;;;;;;;5074834;28;20047;-50
2022/02/28 14:34:59;;;;;;;1.63;1.08;;;;;;;;;;5074688;28;20036;-50
2022/02/28 14:37:25;;;;;;;1.35;1.23;;;;;;;;;;5074776;28;20410;-48
2022/02/28 14:39:51;;;;;;;2.25;1.60;;;;;;;;;;5073504;28;20532;-49
2022/02/28 14:42:17;;;;;;;1.40;1.13;;;;;;;;;;5074759;28;20443;-49
2022/02/28 14:44:43;;;;;;;1.20;1.10;;;;;;;;;;5074959;28;20024;-49